sensor_id;sensor_type;location;lat;lon;timestamp;pressure;altitude;pressure_sealevel;temperature;humidity
13476;BME280;6810;63.824;20.288;2023-04-05T00:01:46;103055.41;;;-0.36;60.89
13476;BME280;6810;63.824;20.288;2023-04-05T00:04:33;103059.69;;;-0.38;61.38
13476;BME280;6810;63.824;20.288;2023-04-05T00:07:21;103077.25;;;-0.34;61.14
13476;BME280;6810;63.824;20.288;2023-04-05T00:10:08;103055.94;;;-0.49;60.90
13476;BME280;6810;63.824;20.288;2023-04-05T00:12:56;103082.34;;;-0.40;61.44
13476;BME280;6810;63.824;20.288;2023-04-05T00:15:43;103077.00;;;-0.44;60.93
13476;BME280;6810;63.824;20.288;2023-04-05T00:18:30;103076.06;;;-0.48;60.77
13476;BME280;6810;63.824;20.288;2023-04-05T00:21:17;103049.41;;;-0.66;60.97
13476;BME280;6810;63.824;20.288;2023-04-05T00:24:05;103078.50;;;-0.55;61.48
13476;BME280;6810;63.824;20.288;2023-04-05T00:26:52;103081.91;;;-0.58;61.95
13476;BME280;6810;63.824;20.288;2023-04-05T00:29:40;103057.09;;;-0.72;61.84
13476;BME280;6810;63.824;20.288;2023-04-05T00:32:26;103062.44;;;-0.67;60.96
13476;BME280;6810;63.824;20.288;2023-04-05T00:35:14;103051.78;;;-0.75;61.46
13476;BME280;6810;63.824;20.288;2023-04-05T00:38:01;103065.00;;;-0.70;61.64
13476;BME280;6810;63.824;20.288;2023-04-05T00:40:48;103069.28;;;-0.74;61.11
13476;BME280;6810;63.824;20.288;2023-04-05T00:43:35;103060.38;;;-0.80;61.70
13476;BME280;6810;63.824;20.288;2023-04-05T00:46:21;103058.47;;;-0.87;61.12
13476;BME280;6810;63.824;20.288;2023-04-05T00:49:09;103076.91;;;-0.83;61.05
13476;BME280;6810;63.824;20.288;2023-04-05T00:51:57;103020.28;;;-1.13;61.40
13476;BME280;6810;63.824;20.288;2023-04-05T00:54:44;103058.28;;;-0.95;60.92
13476;BME280;6810;63.824;20.288;2023-04-05T00:57:31;103066.25;;;-0.90;62.01
13476;BME280;6810;63.824;20.288;2023-04-05T01:00:19;103072.25;;;-0.93;60.98
13476;BME280;6810;63.824;20.288;2023-04-05T01:03:07;103058.91;;;-1.03;61.67
13476;BME280;6810;63.824;20.288;2023-04-05T01:09:52;103066.66;;;-1.06;61.69
13476;BME280;6810;63.824;20.288;2023-04-05T01:12:41;103016.84;;;-1.42;61.68
13476;BME280;6810;63.824;20.288;2023-04-05T01:15:29;102978.91;;;-1.60;61.38
13476;BME280;6810;63.824;20.288;2023-04-05T01:18:17;103063.78;;;-1.17;61.07
13476;BME280;6810;63.824;20.288;2023-04-05T01:24:48;103065.25;;;-1.26;61.52
13476;BME280;6810;63.824;20.288;2023-04-05T01:30:41;103060.75;;;-1.32;61.52
13476;BME280;6810;63.824;20.288;2023-04-05T01:33:34;103064.09;;;-1.36;62.11
13476;BME280;6810;63.824;20.288;2023-04-05T01:36:30;103069.25;;;-1.39;62.06
13476;BME280;6810;63.824;20.288;2023-04-05T01:39:19;103076.19;;;-1.41;61.86
13476;BME280;6810;63.824;20.288;2023-04-05T01:42:06;103075.16;;;-1.46;61.12
13476;BME280;6810;63.824;20.288;2023-04-05T01:44:55;103062.72;;;-1.54;62.19
13476;BME280;6810;63.824;20.288;2023-04-05T01:47:42;103072.19;;;-1.58;61.98
13476;BME280;6810;63.824;20.288;2023-04-05T01:50:29;103092.31;;;-1.55;61.95
13476;BME280;6810;63.824;20.288;2023-04-05T01:53:17;103087.00;;;-1.58;61.85
13476;BME280;6810;63.824;20.288;2023-04-05T01:56:05;103081.50;;;-1.67;62.49
13476;BME280;6810;63.824;20.288;2023-04-05T01:58:53;103084.19;;;-1.64;62.34
13476;BME280;6810;63.824;20.288;2023-04-05T02:01:40;103083.22;;;-1.68;61.73
13476;BME280;6810;63.824;20.288;2023-04-05T02:04:27;103084.81;;;-1.73;62.04
13476;BME280;6810;63.824;20.288;2023-04-05T02:07:14;103073.22;;;-1.83;61.92
13476;BME280;6810;63.824;20.288;2023-04-05T02:10:01;103084.69;;;-1.77;61.50
13476;BME280;6810;63.824;20.288;2023-04-05T02:12:48;103087.19;;;-1.82;61.71
13476;BME280;6810;63.824;20.288;2023-04-05T02:15:36;103098.31;;;-1.88;61.81
13476;BME280;6810;63.824;20.288;2023-04-05T02:18:23;103107.00;;;-1.89;61.48
13476;BME280;6810;63.824;20.288;2023-04-05T02:21:10;103107.81;;;-1.91;61.77
13476;BME280;6810;63.824;20.288;2023-04-05T02:23:57;103109.44;;;-1.95;62.23
13476;BME280;6810;63.824;20.288;2023-04-05T02:26:44;103104.94;;;-1.99;62.70
13476;BME280;6810;63.824;20.288;2023-04-05T02:29:31;103100.50;;;-2.01;62.61
13476;BME280;6810;63.824;20.288;2023-04-05T02:32:18;103096.84;;;-2.06;61.54
13476;BME280;6810;63.824;20.288;2023-04-05T02:35:06;103076.28;;;-2.24;61.92
13476;BME280;6810;63.824;20.288;2023-04-05T02:37:53;103108.91;;;-2.11;62.70
13476;BME280;6810;63.824;20.288;2023-04-05T02:40:40;103113.09;;;-2.16;62.67
13476;BME280;6810;63.824;20.288;2023-04-05T02:43:27;103075.81;;;-2.39;62.19
13476;BME280;6810;63.824;20.288;2023-04-05T02:46:15;103019.69;;;-2.78;62.37
13476;BME280;6810;63.824;20.288;2023-04-05T02:49:03;103085.16;;;-2.45;61.34
13476;BME280;6810;63.824;20.288;2023-04-05T02:51:50;103106.44;;;-2.33;61.58
13476;BME280;6810;63.824;20.288;2023-04-05T02:54:37;103092.25;;;-2.41;62.36
13476;BME280;6810;63.824;20.288;2023-04-05T02:57:28;103108.91;;;-2.38;62.38
13476;BME280;6810;63.824;20.288;2023-04-05T03:00:28;103114.91;;;-2.40;61.88
13476;BME280;6810;63.824;20.288;2023-04-05T03:03:21;103107.00;;;-2.43;61.36
13476;BME280;6810;63.824;20.288;2023-04-05T03:06:08;103108.59;;;-2.47;61.81
13476;BME280;6810;63.824;20.288;2023-04-05T03:08:57;103108.50;;;-2.50;61.37
13476;BME280;6810;63.824;20.288;2023-04-05T03:11:46;103095.97;;;-2.60;62.43
13476;BME280;6810;63.824;20.288;2023-04-05T03:14:38;103119.59;;;-2.57;61.95
13476;BME280;6810;63.824;20.288;2023-04-05T03:17:28;103111.56;;;-2.61;62.85
13476;BME280;6810;63.824;20.288;2023-04-05T03:20:15;103115.84;;;-2.65;61.46
13476;BME280;6810;63.824;20.288;2023-04-05T03:23:03;103110.50;;;-2.68;62.68
13476;BME280;6810;63.824;20.288;2023-04-05T03:25:58;103111.22;;;-2.72;61.75
13476;BME280;6810;63.824;20.288;2023-04-05T03:28:49;103101.47;;;-2.77;62.02
13476;BME280;6810;63.824;20.288;2023-04-05T03:31:37;103101.47;;;-2.77;62.88
13476;BME280;6810;63.824;20.288;2023-04-05T03:34:24;103079.03;;;-2.97;62.70
13476;BME280;6810;63.824;20.288;2023-04-05T03:37:16;103093.94;;;-2.93;62.70
13476;BME280;6810;63.824;20.288;2023-04-05T03:40:06;103088.56;;;-2.98;61.92
13476;BME280;6810;63.824;20.288;2023-04-05T03:42:53;103108.88;;;-2.89;61.50
13476;BME280;6810;63.824;20.288;2023-04-05T03:45:40;103092.75;;;-3.03;62.96
13476;BME280;6810;63.824;20.288;2023-04-05T03:48:29;103098.75;;;-3.05;61.86
13476;BME280;6810;63.824;20.288;2023-04-05T03:51:15;103109.44;;;-2.98;63.01
13476;BME280;6810;63.824;20.288;2023-04-05T03:54:03;103110.22;;;-3.00;62.91
13476;BME280;6810;63.824;20.288;2023-04-05T03:56:54;103104.84;;;-3.05;62.15
13476;BME280;6810;63.824;20.288;2023-04-05T03:59:43;103114.38;;;-3.05;62.53
13476;BME280;6810;63.824;20.288;2023-04-05T04:02:44;103119.50;;;-3.08;62.78
13476;BME280;6810;63.824;20.288;2023-04-05T04:05:33;103108.91;;;-3.13;62.53
13476;BME280;6810;63.824;20.288;2023-04-05T04:08:20;103113.25;;;-3.13;62.55
13476;BME280;6810;63.824;20.288;2023-04-05T04:11:08;103111.19;;;-3.22;62.60
13476;BME280;6810;63.824;20.288;2023-04-05T04:13:55;103122.63;;;-3.18;62.41
13476;BME280;6810;63.824;20.288;2023-04-05T04:17:05;103117.31;;;-3.21;61.89
13476;BME280;6810;63.824;20.288;2023-04-05T04:20:15;103086.06;;;-3.43;63.10
13476;BME280;6810;63.824;20.288;2023-04-05T04:23:22;103109.03;;;-3.33;61.91
13476;BME280;6810;63.824;20.288;2023-04-05T04:26:32;103121.34;;;-3.29;62.48
13476;BME280;6810;63.824;20.288;2023-04-05T04:29:38;103126.50;;;-3.31;62.88
13476;BME280;6810;63.824;20.288;2023-04-05T04:32:43;103107.97;;;-3.38;62.58
13476;BME280;6810;63.824;20.288;2023-04-05T04:35:42;103126.38;;;-3.34;63.20
13476;BME280;6810;63.824;20.288;2023-04-05T04:38:52;103125.38;;;-3.37;62.02
13476;BME280;6810;63.824;20.288;2023-04-05T04:42:07;103128.94;;;-3.35;63.45
13476;BME280;6810;63.824;20.288;2023-04-05T04:45:18;103132.38;;;-3.36;62.79
13476;BME280;6810;63.824;20.288;2023-04-05T04:48:27;103116.59;;;-3.41;62.85
13476;BME280;6810;63.824;20.288;2023-04-05T04:51:27;103123.66;;;-3.37;62.39
13476;BME280;6810;63.824;20.288;2023-04-05T04:54:18;103125.22;;;-3.42;62.28
13476;BME280;6810;63.824;20.288;2023-04-05T04:57:04;103135.91;;;-3.34;63.67
13476;BME280;6810;63.824;20.288;2023-04-05T04:59:52;103135.06;;;-3.35;62.62
13476;BME280;6810;63.824;20.288;2023-04-05T05:02:40;103139.47;;;-3.32;62.97
13476;BME280;6810;63.824;20.288;2023-04-05T05:05:27;103100.28;;;-3.58;63.48
13476;BME280;6810;63.824;20.288;2023-04-05T05:08:18;103114.41;;;-3.53;63.17
13476;BME280;6810;63.824;20.288;2023-04-05T05:11:06;103135.16;;;-3.32;63.16
13476;BME280;6810;63.824;20.288;2023-04-05T05:13:53;103142.16;;;-3.31;63.53
13476;BME280;6810;63.824;20.288;2023-04-05T05:16:40;103143.84;;;-3.31;62.53
13476;BME280;6810;63.824;20.288;2023-04-05T05:19:28;103105.63;;;-3.55;62.95
13476;BME280;6810;63.824;20.288;2023-04-05T05:22:16;103060.59;;;-3.74;63.30
13476;BME280;6810;63.824;20.288;2023-04-05T05:25:04;103138.59;;;-3.33;62.62
13476;BME280;6810;63.824;20.288;2023-04-05T05:27:51;103150.91;;;-3.29;63.36
13476;BME280;6810;63.824;20.288;2023-04-05T05:30:38;103151.78;;;-3.28;62.60
13476;BME280;6810;63.824;20.288;2023-04-05T05:33:25;103143.84;;;-3.31;62.68
13476;BME280;6810;63.824;20.288;2023-04-05T05:36:12;103142.94;;;-3.33;63.29
13476;BME280;6810;63.824;20.288;2023-04-05T05:38:59;103158.91;;;-3.24;63.80
13476;BME280;6810;63.824;20.288;2023-04-05T05:41:46;103152.63;;;-3.29;63.72
13476;BME280;6810;63.824;20.288;2023-04-05T05:44:33;103148.38;;;-3.27;63.04
13476;BME280;6810;63.824;20.288;2023-04-05T05:47:20;103142.25;;;-3.28;64.00
13476;BME280;6810;63.824;20.288;2023-04-05T05:50:08;103154.81;;;-3.18;64.34
13476;BME280;6810;63.824;20.288;2023-04-05T05:52:55;103131.59;;;-3.34;63.71
13476;BME280;6810;63.824;20.288;2023-04-05T05:55:42;103157.69;;;-3.10;63.17
13476;BME280;6810;63.824;20.288;2023-04-05T05:58:29;103145.31;;;-3.16;63.59
13476;BME280;6810;63.824;20.288;2023-04-05T06:01:16;103173.56;;;-3.04;63.64
13476;BME280;6810;63.824;20.288;2023-04-05T06:04:03;103159.78;;;-3.00;63.24
13476;BME280;6810;63.824;20.288;2023-04-05T06:06:51;103158.06;;;-3.00;63.27
13476;BME280;6810;63.824;20.288;2023-04-05T06:09:37;103164.44;;;-2.92;63.83
13476;BME280;6810;63.824;20.288;2023-04-05T06:12:24;103157.59;;;-2.88;64.36
13476;BME280;6810;63.824;20.288;2023-04-05T06:15:12;103144.41;;;-2.93;64.02
13476;BME280;6810;63.824;20.288;2023-04-05T06:17:59;103156.06;;;-2.83;63.97
13476;BME280;6810;63.824;20.288;2023-04-05T06:20:46;103065.66;;;-3.31;64.04
13476;BME280;6810;63.824;20.288;2023-04-05T06:23:33;103163.41;;;-2.72;64.58
13476;BME280;6810;63.824;20.288;2023-04-05T06:26:22;103139.59;;;-2.81;64.76
13476;BME280;6810;63.824;20.288;2023-04-05T06:29:09;103161.13;;;-2.63;63.79
13476;BME280;6810;63.824;20.288;2023-04-05T06:31:56;103150.84;;;-2.58;64.13
13476;BME280;6810;63.824;20.288;2023-04-05T06:34:43;103144.06;;;-2.53;63.90
13476;BME280;6810;63.824;20.288;2023-04-05T06:37:30;103119.16;;;-2.69;63.78
13476;BME280;6810;63.824;20.288;2023-04-05T06:40:18;103145.31;;;-2.42;64.71
13476;BME280;6810;63.824;20.288;2023-04-05T06:43:07;103144.59;;;-2.37;64.05
13476;BME280;6810;63.824;20.288;2023-04-05T06:45:57;103072.03;;;-2.73;64.47
13476;BME280;6810;63.824;20.288;2023-04-05T06:48:45;103151.97;;;-2.25;64.40
13476;BME280;6810;63.824;20.288;2023-04-05T06:51:32;103141.53;;;-2.25;64.17
13476;BME280;6810;63.824;20.288;2023-04-05T06:54:19;103152.38;;;-2.13;63.90
13476;BME280;6810;63.824;20.288;2023-04-05T06:57:06;103140.06;;;-2.17;64.11
13476;BME280;6810;63.824;20.288;2023-04-05T06:59:53;103150.16;;;-2.01;64.50
13476;BME280;6810;63.824;20.288;2023-04-05T07:02:41;103158.19;;;-1.95;64.98
13476;BME280;6810;63.824;20.288;2023-04-05T07:05:28;103165.47;;;-1.85;65.09
13476;BME280;6810;63.824;20.288;2023-04-05T07:08:15;103099.47;;;-2.06;64.77
13476;BME280;6810;63.824;20.288;2023-04-05T07:11:02;103152.97;;;-1.67;65.31
13476;BME280;6810;63.824;20.288;2023-04-05T07:13:49;103106.09;;;-1.89;64.54
13476;BME280;6810;63.824;20.288;2023-04-05T07:16:35;103158.69;;;-1.50;64.37
13476;BME280;6810;63.824;20.288;2023-04-05T07:19:22;103157.25;;;-1.41;65.28
13476;BME280;6810;63.824;20.288;2023-04-05T07:22:09;103150.44;;;-1.34;64.92
13476;BME280;6810;63.824;20.288;2023-04-05T07:24:56;103160.31;;;-1.26;64.98
13476;BME280;6810;63.824;20.288;2023-04-05T07:27:46;103150.88;;;-1.21;65.46
13476;BME280;6810;63.824;20.288;2023-04-05T07:30:33;103156.31;;;-1.13;65.59
13476;BME280;6810;63.824;20.288;2023-04-05T07:33:20;103167.81;;;-1.07;65.80
13476;BME280;6810;63.824;20.288;2023-04-05T07:36:08;103124.75;;;-1.19;65.61
13476;BME280;6810;63.824;20.288;2023-04-05T07:38:56;103159.56;;;-0.91;65.10
13476;BME280;6810;63.824;20.288;2023-04-05T07:41:43;103160.63;;;-0.84;65.03
13476;BME280;6810;63.824;20.288;2023-04-05T07:44:30;103153.00;;;-0.77;65.60
13476;BME280;6810;63.824;20.288;2023-04-05T07:47:17;103089.25;;;-1.10;66.09
13476;BME280;6810;63.824;20.288;2023-04-05T07:50:05;103155.16;;;-0.61;65.52
13476;BME280;6810;63.824;20.288;2023-04-05T07:52:52;103155.31;;;-0.55;65.39
13476;BME280;6810;63.824;20.288;2023-04-05T07:55:39;103150.19;;;-0.50;65.48
13476;BME280;6810;63.824;20.288;2023-04-05T07:58:26;103154.94;;;-0.36;66.23
13476;BME280;6810;63.824;20.288;2023-04-05T08:01:13;103123.28;;;-0.45;65.81
13476;BME280;6810;63.824;20.288;2023-04-05T08:03:59;103158.91;;;-0.17;65.76
13476;BME280;6810;63.824;20.288;2023-04-05T08:06:46;103136.19;;;-0.17;66.46
13476;BME280;6810;63.824;20.288;2023-04-05T08:09:34;103159.34;;;0.01;65.92
13476;BME280;6810;63.824;20.288;2023-04-05T08:12:21;103161.34;;;0.13;66.23
13476;BME280;6810;63.824;20.288;2023-04-05T08:15:09;103106.72;;;-0.08;65.77
13476;BME280;6810;63.824;20.288;2023-04-05T08:17:56;103161.84;;;0.32;66.42
13476;BME280;6810;63.824;20.288;2023-04-05T08:20:43;103166.41;;;0.41;66.16
13476;BME280;6810;63.824;20.288;2023-04-05T08:23:30;103137.47;;;0.38;66.36
13476;BME280;6810;63.824;20.288;2023-04-05T08:26:17;103160.63;;;0.57;66.22
13476;BME280;6810;63.824;20.288;2023-04-05T08:29:04;103075.84;;;0.18;65.52
13476;BME280;6810;63.824;20.288;2023-04-05T08:31:51;103168.00;;;0.74;66.69
13476;BME280;6810;63.824;20.288;2023-04-05T08:34:38;103169.13;;;0.85;66.24
13476;BME280;6810;63.824;20.288;2023-04-05T08:37:24;103168.44;;;0.95;66.33
13476;BME280;6810;63.824;20.288;2023-04-05T08:40:12;103173.06;;;1.07;65.98
13476;BME280;6810;63.824;20.288;2023-04-05T08:46:16;103171.75;;;1.28;66.11
13476;BME280;6810;63.824;20.288;2023-04-05T08:49:07;103096.75;;;0.98;66.36
13476;BME280;6810;63.824;20.288;2023-04-05T08:51:54;103165.03;;;1.45;65.87
13476;BME280;6810;63.824;20.288;2023-04-05T08:54:41;103174.09;;;1.61;65.79
13476;BME280;6810;63.824;20.288;2023-04-05T08:57:29;103157.44;;;1.60;65.87
13476;BME280;6810;63.824;20.288;2023-04-05T09:00:18;103168.25;;;1.77;65.33
13476;BME280;6810;63.824;20.288;2023-04-05T09:02:53;103173.59;;;1.83;65.09
13476;BME280;6810;63.824;20.288;2023-04-05T09:05:23;103149.03;;;1.81;64.98
13476;BME280;6810;63.824;20.288;2023-04-05T09:07:51;103168.63;;;2.00;65.56
13476;BME280;6810;63.824;20.288;2023-04-05T09:10:19;103167.03;;;2.09;64.42
13476;BME280;6810;63.824;20.288;2023-04-05T09:12:47;103153.03;;;2.12;64.50
13476;BME280;6810;63.824;20.288;2023-04-05T09:15:17;103113.38;;;1.98;65.02
13476;BME280;6810;63.824;20.288;2023-04-05T09:17:47;103172.75;;;2.41;64.89
13476;BME280;6810;63.824;20.288;2023-04-05T09:20:14;103172.91;;;2.51;64.48
13476;BME280;6810;63.824;20.288;2023-04-05T09:22:43;103169.56;;;2.63;64.21
13476;BME280;6810;63.824;20.288;2023-04-05T09:27:57;103174.28;;;2.89;62.80
13476;BME280;6810;63.824;20.288;2023-04-05T09:30:25;103077.22;;;2.48;62.50
13476;BME280;6810;63.824;20.288;2023-04-05T09:32:54;103134.00;;;2.95;62.12
13476;BME280;6810;63.824;20.288;2023-04-05T09:35:23;103170.38;;;3.29;61.64
13476;BME280;6810;63.824;20.288;2023-04-05T09:37:52;103170.50;;;3.41;61.96
13476;BME280;6810;63.824;20.288;2023-04-05T09:40:20;103162.75;;;3.54;61.38
13476;BME280;6810;63.824;20.288;2023-04-05T09:42:47;103169.91;;;3.69;60.65
13476;BME280;6810;63.824;20.288;2023-04-05T09:45:15;103160.34;;;3.82;60.73
13476;BME280;6810;63.824;20.288;2023-04-05T09:47:56;103155.16;;;3.92;60.35
13476;BME280;6810;63.824;20.288;2023-04-05T09:50:24;103153.53;;;4.11;60.80
13476;BME280;6810;63.824;20.288;2023-04-05T09:53:08;103163.31;;;4.25;59.69
13476;BME280;6810;63.824;20.288;2023-04-05T09:55:35;103134.25;;;4.24;59.40
13476;BME280;6810;63.824;20.288;2023-04-05T09:58:02;103158.22;;;4.52;60.30
13476;BME280;6810;63.824;20.288;2023-04-05T10:00:29;103166.22;;;4.66;58.72
13476;BME280;6810;63.824;20.288;2023-04-05T10:02:59;103163.66;;;4.81;59.03
13476;BME280;6810;63.824;20.288;2023-04-05T10:05:27;103160.16;;;4.95;58.46
13476;BME280;6810;63.824;20.288;2023-04-05T10:07:55;103119.66;;;4.87;58.92
13476;BME280;6810;63.824;20.288;2023-04-05T10:10:23;103165.56;;;5.24;58.92
13476;BME280;6810;63.824;20.288;2023-04-05T10:12:52;103156.78;;;5.38;57.33
13476;BME280;6810;63.824;20.288;2023-04-05T10:15:19;103125.03;;;5.34;56.97
13476;BME280;6810;63.824;20.288;2023-04-05T10:18:03;103130.34;;;5.55;56.93
13476;BME280;6810;63.824;20.288;2023-04-05T10:20:38;103135.69;;;5.78;55.80
13476;BME280;6810;63.824;20.288;2023-04-05T10:23:07;103148.03;;;6.01;55.64
13476;BME280;6810;63.824;20.288;2023-04-05T10:25:56;103157.75;;;6.17;55.34
13476;BME280;6810;63.824;20.288;2023-04-05T10:28:34;103152.41;;;6.34;54.99
13476;BME280;6810;63.824;20.288;2023-04-05T10:34:07;103162.91;;;6.68;54.48
13476;BME280;6810;63.824;20.288;2023-04-05T10:36:49;103155.81;;;6.82;53.97
13476;BME280;6810;63.824;20.288;2023-04-05T10:39:49;103149.53;;;7.00;53.48
13476;BME280;6810;63.824;20.288;2023-04-05T10:42:20;103153.00;;;7.14;53.51
13476;BME280;6810;63.824;20.288;2023-04-05T10:44:57;103128.28;;;7.14;52.87
13476;BME280;6810;63.824;20.288;2023-04-05T10:47:27;103144.00;;;7.42;52.42
13476;BME280;6810;63.824;20.288;2023-04-05T10:49:55;103152.78;;;7.55;52.00
13476;BME280;6810;63.824;20.288;2023-04-05T10:52:26;103099.81;;;7.38;52.09
13476;BME280;6810;63.824;20.288;2023-04-05T10:54:56;103144.59;;;7.82;51.29
13476;BME280;6810;63.824;20.288;2023-04-05T10:57:26;103143.59;;;7.93;51.39
13476;BME280;6810;63.824;20.288;2023-04-05T10:59:53;103151.47;;;8.08;50.94
13476;BME280;6810;63.824;20.288;2023-04-05T11:02:21;103146.03;;;8.20;50.76
13476;BME280;6810;63.824;20.288;2023-04-05T11:04:55;103149.44;;;8.33;50.33
13476;BME280;6810;63.824;20.288;2023-04-05T11:07:23;103144.91;;;8.44;49.50
13476;BME280;6810;63.824;20.288;2023-04-05T11:09:51;103140.34;;;8.56;49.75
13476;BME280;6810;63.824;20.288;2023-04-05T11:12:19;103149.97;;;8.69;48.95
13476;BME280;6810;63.824;20.288;2023-04-05T11:14:46;103150.69;;;8.80;48.14
13476;BME280;6810;63.824;20.288;2023-04-05T11:17:26;103141.69;;;8.92;47.98
13476;BME280;6810;63.824;20.288;2023-04-05T11:20:02;103138.00;;;9.02;47.64
13476;BME280;6810;63.824;20.288;2023-04-05T11:22:30;103118.47;;;9.06;46.68
13476;BME280;6810;63.824;20.288;2023-04-05T11:24:59;103136.81;;;9.26;46.50
13476;BME280;6810;63.824;20.288;2023-04-05T11:27:30;103127.75;;;9.36;45.83
13476;BME280;6810;63.824;20.288;2023-04-05T11:29:59;103127.59;;;9.46;46.12
13476;BME280;6810;63.824;20.288;2023-04-05T11:32:46;103120.38;;;9.56;46.10
13476;BME280;6810;63.824;20.288;2023-04-05T11:35:15;103118.47;;;9.64;45.50
13476;BME280;6810;63.824;20.288;2023-04-05T11:37:55;103117.41;;;9.74;45.38
13476;BME280;6810;63.824;20.288;2023-04-05T11:40:35;103119.88;;;9.84;44.83
13476;BME280;6810;63.824;20.288;2023-04-05T11:43:07;103109.09;;;9.92;44.21
13476;BME280;6810;63.824;20.288;2023-04-05T11:45:37;103116.88;;;10.05;43.77
13476;BME280;6810;63.824;20.288;2023-04-05T11:48:11;103119.41;;;10.14;44.55
13476;BME280;6810;63.824;20.288;2023-04-05T11:50:39;103124.56;;;10.23;43.94
13476;BME280;6810;63.824;20.288;2023-04-05T11:53:15;103110.22;;;10.29;43.92
13476;BME280;6810;63.824;20.288;2023-04-05T11:55:45;103110.13;;;10.33;42.86
13476;BME280;6810;63.824;20.288;2023-04-05T11:58:23;103112.59;;;10.44;42.81
13476;BME280;6810;63.824;20.288;2023-04-05T12:03:25;103109.56;;;10.64;43.78
13476;BME280;6810;63.824;20.288;2023-04-05T12:05:57;103102.22;;;10.73;42.80
13476;BME280;6810;63.824;20.288;2023-04-05T12:08:39;103103.84;;;10.82;44.17
13476;BME280;6810;63.824;20.288;2023-04-05T12:11:08;103090.38;;;10.88;42.93
13476;BME280;6810;63.824;20.288;2023-04-05T12:13:37;103098.97;;;11.02;43.43
13476;BME280;6810;63.824;20.288;2023-04-05T12:16:06;103096.97;;;11.10;43.45
13476;BME280;6810;63.824;20.288;2023-04-05T12:18:35;103086.03;;;11.20;42.33
13476;BME280;6810;63.824;20.288;2023-04-05T12:21:04;103089.38;;;11.30;41.95
13476;BME280;6810;63.824;20.288;2023-04-05T12:23:33;103092.75;;;11.38;41.79
13476;BME280;6810;63.824;20.288;2023-04-05T12:26:02;103065.31;;;11.31;41.89
13476;BME280;6810;63.824;20.288;2023-04-05T12:28:51;103080.78;;;11.54;42.33
13476;BME280;6810;63.824;20.288;2023-04-05T12:31:39;103083.34;;;11.60;42.12
13476;BME280;6810;63.824;20.288;2023-04-05T12:34:08;103081.41;;;11.66;41.27
13476;BME280;6810;63.824;20.288;2023-04-05T12:36:35;103082.13;;;11.73;41.39
13476;BME280;6810;63.824;20.288;2023-04-05T12:39:07;103081.09;;;11.78;41.02
13476;BME280;6810;63.824;20.288;2023-04-05T12:41:35;103019.47;;;11.49;41.46
13476;BME280;6810;63.824;20.288;2023-04-05T12:44:29;103088.75;;;11.93;42.08
13476;BME280;6810;63.824;20.288;2023-04-05T12:47:02;103043.72;;;11.77;41.35
13476;BME280;6810;63.824;20.288;2023-04-05T12:49:36;103084.78;;;12.08;40.89
13476;BME280;6810;63.824;20.288;2023-04-05T12:52:04;103086.34;;;12.15;40.44
13476;BME280;6810;63.824;20.288;2023-04-05T12:54:32;103080.88;;;12.21;41.35
13476;BME280;6810;63.824;20.288;2023-04-05T12:57:00;103077.13;;;12.27;40.12
13476;BME280;6810;63.824;20.288;2023-04-05T12:59:30;103078.75;;;12.32;40.55
13476;BME280;6810;63.824;20.288;2023-04-05T13:01:57;103073.31;;;12.35;40.62
13476;BME280;6810;63.824;20.288;2023-04-05T13:04:25;103070.53;;;12.38;40.19
13476;BME280;6810;63.824;20.288;2023-04-05T13:06:52;103044.16;;;12.26;39.30
13476;BME280;6810;63.824;20.288;2023-04-05T13:09:20;103051.06;;;12.35;39.24
13476;BME280;6810;63.824;20.288;2023-04-05T13:11:47;103061.59;;;12.41;38.76
13476;BME280;6810;63.824;20.288;2023-04-05T13:14:16;103052.56;;;12.43;39.26
13476;BME280;6810;63.824;20.288;2023-04-05T13:16:43;103054.22;;;12.47;39.79
13476;BME280;6810;63.824;20.288;2023-04-05T13:19:10;103044.50;;;12.45;39.56
13476;BME280;6810;63.824;20.288;2023-04-05T13:21:38;103051.47;;;12.52;38.82
13476;BME280;6810;63.824;20.288;2023-04-05T13:24:05;103054.94;;;12.54;38.63
13476;BME280;6810;63.824;20.288;2023-04-05T13:26:32;103048.66;;;12.56;38.61
13476;BME280;6810;63.824;20.288;2023-04-05T13:28:59;103050.38;;;12.57;39.24
13476;BME280;6810;63.824;20.288;2023-04-05T13:31:26;103046.78;;;12.58;39.07
13476;BME280;6810;63.824;20.288;2023-04-05T13:33:53;103049.44;;;12.58;38.72
13476;BME280;6810;63.824;20.288;2023-04-05T13:36:20;103037.09;;;12.54;38.62
13476;BME280;6810;63.824;20.288;2023-04-05T13:38:47;103028.31;;;12.49;38.50
13476;BME280;6810;63.824;20.288;2023-04-05T13:41:14;103036.22;;;12.54;38.06
13476;BME280;6810;63.824;20.288;2023-04-05T13:43:41;103030.88;;;12.54;37.80
13476;BME280;6810;63.824;20.288;2023-04-05T13:46:08;103024.00;;;12.45;38.51
13476;BME280;6810;63.824;20.288;2023-04-05T13:48:36;103036.31;;;12.51;38.02
13476;BME280;6810;63.824;20.288;2023-04-05T13:51:04;103025.75;;;12.46;38.05
13476;BME280;6810;63.824;20.288;2023-04-05T13:53:31;103033.06;;;12.40;36.98
13476;BME280;6810;63.824;20.288;2023-04-05T13:55:58;103027.78;;;12.37;37.77
13476;BME280;6810;63.824;20.288;2023-04-05T13:58:25;103026.19;;;12.31;37.45
13476;BME280;6810;63.824;20.288;2023-04-05T14:00:52;103023.59;;;12.28;37.83
13476;BME280;6810;63.824;20.288;2023-04-05T14:03:19;103031.75;;;12.23;37.77
13476;BME280;6810;63.824;20.288;2023-04-05T14:05:46;103002.88;;;12.05;37.65
13476;BME280;6810;63.824;20.288;2023-04-05T14:08:17;103007.41;;;12.02;36.92
13476;BME280;6810;63.824;20.288;2023-04-05T14:10:44;103023.28;;;12.08;37.13
13476;BME280;6810;63.824;20.288;2023-04-05T14:13:11;103029.59;;;12.05;37.46
13476;BME280;6810;63.824;20.288;2023-04-05T14:15:41;103023.50;;;12.00;36.31
13476;BME280;6810;63.824;20.288;2023-04-05T14:18:09;103025.44;;;11.94;36.52
13476;BME280;6810;63.824;20.288;2023-04-05T14:20:37;103029.03;;;11.93;37.39
13476;BME280;6810;63.824;20.288;2023-04-05T14:23:04;103035.38;;;11.90;36.54
13476;BME280;6810;63.824;20.288;2023-04-05T14:25:32;103041.69;;;11.86;36.74
13476;BME280;6810;63.824;20.288;2023-04-05T14:27:59;103033.78;;;11.82;36.40
13476;BME280;6810;63.824;20.288;2023-04-05T14:30:26;103035.69;;;11.77;36.37